sensor_id;sensor_type;location;lat;lon;timestamp;pressure;altitude;pressure_sealevel;temperature;humidity
19884;BME280;10104;50.732;10.174;2023-02-01T00:00:30;98117.06;;;4.36;100.00
19884;BME280;10104;50.732;10.174;2023-02-01T00:02:51;98108.22;;;4.37;100.00
19884;BME280;10104;50.732;10.174;2023-02-01T00:05:13;98113.47;;;4.37;100.00
19884;BME280;10104;50.732;10.174;2023-02-01T00:07:36;98101.47;;;4.35;100.00
19884;BME280;10104;50.732;10.174;2023-02-01T00:09:58;98100.50;;;4.36;100.00
19884;BME280;10104;50.732;10.174;2023-02-01T00:12:19;98104.78;;;4.27;100.00
19884;BME280;10104;50.732;10.174;2023-02-01T00:14:40;98100.94;;;4.31;100.00
19884;BME280;10104;50.732;10.174;2023-02-01T00:17:02;98092.41;;;4.20;100.00
19884;BME280;10104;50.732;10.174;2023-02-01T00:19:23;98096.16;;;4.17;100.00
19884;BME280;10104;50.732;10.174;2023-02-01T00:21:45;98099.34;;;4.11;100.00
19884;BME280;10104;50.732;10.174;2023-02-01T00:24:08;98095.19;;;4.18;100.00
19884;BME280;10104;50.732;10.174;2023-02-01T00:26:31;98098.06;;;4.15;100.00
19884;BME280;10104;50.732;10.174;2023-02-01T00:28:53;98104.28;;;4.14;100.00
19884;BME280;10104;50.732;10.174;2023-02-01T00:31:14;98095.31;;;4.17;100.00
19884;BME280;10104;50.732;10.174;2023-02-01T00:33:36;98094.94;;;4.02;100.00
19884;BME280;10104;50.732;10.174;2023-02-01T00:35:59;98095.09;;;4.00;100.00
19884;BME280;10104;50.732;10.174;2023-02-01T00:38:21;98097.16;;;3.97;100.00
19884;BME280;10104;50.732;10.174;2023-02-01T00:40:43;98098.69;;;3.99;100.00
19884;BME280;10104;50.732;10.174;2023-02-01T00:43:04;98101.56;;;3.96;100.00
19884;BME280;10104;50.732;10.174;2023-02-01T00:45:26;98094.41;;;3.98;100.00
19884;BME280;10104;50.732;10.174;2023-02-01T00:47:47;98100.34;;;4.00;100.00
19884;BME280;10104;50.732;10.174;2023-02-01T00:50:09;98105.00;;;4.06;100.00
19884;BME280;10104;50.732;10.174;2023-02-01T00:52:31;98103.34;;;4.05;100.00
19884;BME280;10104;50.732;10.174;2023-02-01T00:54:52;98099.19;;;4.13;100.00
19884;BME280;10104;50.732;10.174;2023-02-01T00:57:14;98096.41;;;4.14;100.00
19884;BME280;10104;50.732;10.174;2023-02-01T00:59:36;98109.50;;;4.24;100.00
19884;BME280;10104;50.732;10.174;2023-02-01T01:01:57;98098.19;;;4.23;100.00
19884;BME280;10104;50.732;10.174;2023-02-01T01:04:19;98090.59;;;4.30;100.00
19884;BME280;10104;50.732;10.174;2023-02-01T01:06:40;98100.13;;;4.21;100.00
19884;BME280;10104;50.732;10.174;2023-02-01T01:09:05;98098.06;;;4.25;100.00
19884;BME280;10104;50.732;10.174;2023-02-01T01:11:29;98098.59;;;4.28;100.00
19884;BME280;10104;50.732;10.174;2023-02-01T01:13:52;98093.66;;;4.25;100.00
19884;BME280;10104;50.732;10.174;2023-02-01T01:16:15;98091.84;;;4.26;100.00
19884;BME280;10104;50.732;10.174;2023-02-01T01:18:37;98086.19;;;4.30;100.00
19884;BME280;10104;50.732;10.174;2023-02-01T01:20:59;98089.88;;;4.37;100.00
19884;BME280;10104;50.732;10.174;2023-02-01T01:23:21;98086.84;;;4.32;100.00
19884;BME280;10104;50.732;10.174;2023-02-01T01:25:43;98080.50;;;4.35;100.00
19884;BME280;10104;50.732;10.174;2023-02-01T01:28:05;98078.69;;;4.35;100.00
19884;BME280;10104;50.732;10.174;2023-02-01T01:30:27;98080.00;;;4.22;100.00
19884;BME280;10104;50.732;10.174;2023-02-01T01:32:48;98074.47;;;4.25;100.00
19884;BME280;10104;50.732;10.174;2023-02-01T01:35:11;98063.56;;;4.29;100.00
19884;BME280;10104;50.732;10.174;2023-02-01T01:37:32;98068.34;;;4.34;100.00
19884;BME280;10104;50.732;10.174;2023-02-01T01:39:54;98078.19;;;4.32;100.00
19884;BME280;10104;50.732;10.174;2023-02-01T01:42:17;98069.31;;;4.33;100.00
19884;BME280;10104;50.732;10.174;2023-02-01T01:44:59;98073.72;;;4.32;100.00
19884;BME280;10104;50.732;10.174;2023-02-01T01:47:21;98077.94;;;4.25;100.00
19884;BME280;10104;50.732;10.174;2023-02-01T01:49:43;98066.44;;;4.26;100.00
19884;BME280;10104;50.732;10.174;2023-02-01T01:52:05;98065.66;;;4.26;100.00
19884;BME280;10104;50.732;10.174;2023-02-01T01:54:29;98056.53;;;4.20;100.00
19884;BME280;10104;50.732;10.174;2023-02-01T01:56:57;98047.84;;;4.20;100.00
19884;BME280;10104;50.732;10.174;2023-02-01T01:59:21;98044.25;;;4.21;100.00
19884;BME280;10104;50.732;10.174;2023-02-01T02:01:45;98042.09;;;4.16;100.00
19884;BME280;10104;50.732;10.174;2023-02-01T02:04:07;98035.88;;;4.17;100.00
19884;BME280;10104;50.732;10.174;2023-02-01T02:09:03;98028.72;;;4.19;100.00
19884;BME280;10104;50.732;10.174;2023-02-01T02:11:27;98032.44;;;4.17;100.00
19884;BME280;10104;50.732;10.174;2023-02-01T02:13:51;98028.72;;;4.19;100.00
19884;BME280;10104;50.732;10.174;2023-02-01T02:16:24;98040.94;;;4.28;100.00
19884;BME280;10104;50.732;10.174;2023-02-01T02:19:01;98039.56;;;4.24;100.00
19884;BME280;10104;50.732;10.174;2023-02-01T02:27:14;98022.72;;;4.27;100.00
19884;BME280;10104;50.732;10.174;2023-02-01T02:33:19;98025.06;;;4.30;100.00
19884;BME280;10104;50.732;10.174;2023-02-01T02:36:00;98014.44;;;4.31;100.00
19884;BME280;10104;50.732;10.174;2023-02-01T02:38:45;98023.53;;;4.37;100.00
19884;BME280;10104;50.732;10.174;2023-02-01T02:41:13;98014.53;;;4.39;100.00
19884;BME280;10104;50.732;10.174;2023-02-01T02:43:57;98013.88;;;4.37;100.00
19884;BME280;10104;50.732;10.174;2023-02-01T02:46:41;98008.63;;;4.37;100.00
19884;BME280;10104;50.732;10.174;2023-02-01T02:49:35;98000.91;;;4.36;100.00
19884;BME280;10104;50.732;10.174;2023-02-01T02:52:04;98030.22;;;4.49;100.00
19884;BME280;10104;50.732;10.174;2023-02-01T02:54:48;98027.22;;;4.44;96.48
19884;BME280;10104;50.732;10.174;2023-02-01T02:57:17;98014.47;;;4.49;95.29
19884;BME280;10104;50.732;10.174;2023-02-01T03:00:00;98022.81;;;4.62;95.96
19884;BME280;10104;50.732;10.174;2023-02-01T03:02:42;98010.44;;;4.55;97.34
19884;BME280;10104;50.732;10.174;2023-02-01T03:05:22;97989.56;;;4.63;98.21
19884;BME280;10104;50.732;10.174;2023-02-01T03:10:08;97983.78;;;4.59;98.34
19884;BME280;10104;50.732;10.174;2023-02-01T03:12:36;97984.84;;;4.66;98.08
19884;BME280;10104;50.732;10.174;2023-02-01T03:15:21;97981.00;;;4.61;98.82
19884;BME280;10104;50.732;10.174;2023-02-01T03:17:48;97976.47;;;4.63;98.86
19884;BME280;10104;50.732;10.174;2023-02-01T03:20:12;97974.44;;;4.57;98.30
19884;BME280;10104;50.732;10.174;2023-02-01T03:22:37;97972.47;;;4.59;98.68
19884;BME280;10104;50.732;10.174;2023-02-01T03:25:07;97967.22;;;4.59;99.33
19884;BME280;10104;50.732;10.174;2023-02-01T03:27:44;97965.28;;;4.61;99.56
19884;BME280;10104;50.732;10.174;2023-02-01T03:30:34;97964.44;;;4.60;99.93
19884;BME280;10104;50.732;10.174;2023-02-01T03:32:59;97965.72;;;4.56;100.00
19884;BME280;10104;50.732;10.174;2023-02-01T03:35:33;97966.16;;;4.69;99.50
19884;BME280;10104;50.732;10.174;2023-02-01T03:38:12;97961.16;;;4.76;99.32
19884;BME280;10104;50.732;10.174;2023-02-01T03:40:39;97973.25;;;4.69;100.00
19884;BME280;10104;50.732;10.174;2023-02-01T03:43:04;97980.88;;;4.62;100.00
19884;BME280;10104;50.732;10.174;2023-02-01T03:45:36;97969.78;;;4.68;100.00
19884;BME280;10104;50.732;10.174;2023-02-01T03:48:02;97976.47;;;4.63;100.00
19884;BME280;10104;50.732;10.174;2023-02-01T03:50:26;97966.63;;;4.65;100.00
19884;BME280;10104;50.732;10.174;2023-02-01T03:52:53;97974.44;;;4.57;100.00
19884;BME280;10104;50.732;10.174;2023-02-01T03:55:19;97976.50;;;4.53;100.00
19884;BME280;10104;50.732;10.174;2023-02-01T03:57:48;97968.41;;;4.64;100.00
19884;BME280;10104;50.732;10.174;2023-02-01T04:00:21;97984.38;;;4.53;100.00
19884;BME280;10104;50.732;10.174;2023-02-01T04:02:43;97972.22;;;4.52;100.00
19884;BME280;10104;50.732;10.174;2023-02-01T04:05:05;97959.25;;;4.51;100.00
19884;BME280;10104;50.732;10.174;2023-02-01T04:07:27;97964.22;;;4.54;100.00
19884;BME280;10104;50.732;10.174;2023-02-01T04:09:48;97964.22;;;4.54;100.00
19884;BME280;10104;50.732;10.174;2023-02-01T04:12:10;97970.16;;;4.56;100.00
19884;BME280;10104;50.732;10.174;2023-02-01T04:14:31;97970.19;;;4.46;100.00
19884;BME280;10104;50.732;10.174;2023-02-01T04:16:52;97969.97;;;4.57;100.00
19884;BME280;10104;50.732;10.174;2023-02-01T04:19:14;97980.31;;;4.41;100.00
19884;BME280;10104;50.732;10.174;2023-02-01T04:21:36;97965.78;;;4.46;99.75
19884;BME280;10104;50.732;10.174;2023-02-01T04:23:57;97981.66;;;4.45;100.00
19884;BME280;10104;50.732;10.174;2023-02-01T04:26:19;97982.78;;;4.42;100.00
19884;BME280;10104;50.732;10.174;2023-02-01T04:28:41;97956.63;;;4.33;100.00
19884;BME280;10104;50.732;10.174;2023-02-01T04:31:03;97964.25;;;4.26;100.00
19884;BME280;10104;50.732;10.174;2023-02-01T04:33:25;97949.00;;;4.39;100.00
19884;BME280;10104;50.732;10.174;2023-02-01T04:35:47;97950.53;;;4.32;100.00
19884;BME280;10104;50.732;10.174;2023-02-01T04:38:08;97966.38;;;4.40;100.00
19884;BME280;10104;50.732;10.174;2023-02-01T04:40:30;97947.34;;;4.38;100.00
19884;BME280;10104;50.732;10.174;2023-02-01T04:42:51;97949.44;;;4.35;100.00
19884;BME280;10104;50.732;10.174;2023-02-01T04:45:14;97935.88;;;4.39;100.00
19884;BME280;10104;50.732;10.174;2023-02-01T04:47:36;97937.16;;;4.35;100.00
19884;BME280;10104;50.732;10.174;2023-02-01T04:49:57;97926.22;;;4.40;100.00
19884;BME280;10104;50.732;10.174;2023-02-01T04:52:19;97920.22;;;4.30;100.00
19884;BME280;10104;50.732;10.174;2023-02-01T04:54:40;97920.75;;;4.33;100.00
19884;BME280;10104;50.732;10.174;2023-02-01T04:57:01;97921.06;;;4.30;100.00
19884;BME280;10104;50.732;10.174;2023-02-01T04:59:23;97911.03;;;4.26;100.00
19884;BME280;10104;50.732;10.174;2023-02-01T05:01:44;97919.91;;;4.33;99.78
19884;BME280;10104;50.732;10.174;2023-02-01T05:04:09;97917.16;;;4.34;98.71
19884;BME280;10104;50.732;10.174;2023-02-01T05:06:30;97915.13;;;4.28;99.19
19884;BME280;10104;50.732;10.174;2023-02-01T05:08:51;97921.50;;;4.26;98.66
19884;BME280;10104;50.732;10.174;2023-02-01T05:11:13;97905.69;;;4.18;97.98
19884;BME280;10104;50.732;10.174;2023-02-01T05:13:55;97913.25;;;4.21;98.38
19884;BME280;10104;50.732;10.174;2023-02-01T05:16:17;97898.22;;;4.23;97.76
19884;BME280;10104;50.732;10.174;2023-02-01T05:18:38;97877.25;;;4.23;97.45
19884;BME280;10104;50.732;10.174;2023-02-01T05:21:00;97895.00;;;4.29;97.17
19884;BME280;10104;50.732;10.174;2023-02-01T05:23:22;97889.25;;;4.25;96.23
19884;BME280;10104;50.732;10.174;2023-02-01T05:25:43;97889.97;;;4.35;96.79
19884;BME280;10104;50.732;10.174;2023-02-01T05:28:05;97889.97;;;4.35;95.70
19884;BME280;10104;50.732;10.174;2023-02-01T05:30:26;97895.91;;;4.37;95.32
19884;BME280;10104;50.732;10.174;2023-02-01T05:32:51;97886.16;;;4.30;95.35
19884;BME280;10104;50.732;10.174;2023-02-01T05:35:13;97897.53;;;4.21;95.21
19884;BME280;10104;50.732;10.174;2023-02-01T05:37:35;97902.38;;;4.16;94.64
19884;BME280;10104;50.732;10.174;2023-02-01T05:39:56;97901.09;;;4.20;94.36
19884;BME280;10104;50.732;10.174;2023-02-01T05:42:18;97904.28;;;4.23;95.24
19884;BME280;10104;50.732;10.174;2023-02-01T05:44:39;97897.53;;;4.21;95.43
19884;BME280;10104;50.732;10.174;2023-02-01T05:47:01;97911.69;;;4.28;96.40
19884;BME280;10104;50.732;10.174;2023-02-01T05:49:22;97905.19;;;4.32;95.40
19884;BME280;10104;50.732;10.174;2023-02-01T05:51:44;97894.16;;;4.28;96.35
19884;BME280;10104;50.732;10.174;2023-02-01T05:54:05;97889.63;;;4.30;94.86
19884;BME280;10104;50.732;10.174;2023-02-01T05:56:27;97887.63;;;4.15;95.81
19884;BME280;10104;50.732;10.174;2023-02-01T05:58:48;97891.63;;;4.19;95.87
19884;BME280;10104;50.732;10.174;2023-02-01T06:01:10;97888.47;;;4.15;95.85
19884;BME280;10104;50.732;10.174;2023-02-01T06:03:31;97881.63;;;4.04;95.89
19884;BME280;10104;50.732;10.174;2023-02-01T06:05:53;97870.47;;;4.02;96.11
19884;BME280;10104;50.732;10.174;2023-02-01T06:08:14;97865.53;;;3.99;96.84
19884;BME280;10104;50.732;10.174;2023-02-01T06:10:36;97860.91;;;3.93;96.03
19884;BME280;10104;50.732;10.174;2023-02-01T06:12:57;97869.28;;;3.97;95.75
19884;BME280;10104;50.732;10.174;2023-02-01T06:15:19;97876.50;;;3.85;96.54
19884;BME280;10104;50.732;10.174;2023-02-01T06:17:41;97876.50;;;3.85;96.34
19884;BME280;10104;50.732;10.174;2023-02-01T06:20:04;97876.00;;;3.82;97.11
19884;BME280;10104;50.732;10.174;2023-02-01T06:22:27;97871.28;;;3.85;96.99
19884;BME280;10104;50.732;10.174;2023-02-01T06:24:49;97863.19;;;3.79;97.39
19884;BME280;10104;50.732;10.174;2023-02-01T06:27:10;97875.41;;;3.88;97.01
19884;BME280;10104;50.732;10.174;2023-02-01T06:29:32;97870.59;;;3.83;96.80
19884;BME280;10104;50.732;10.174;2023-02-01T06:31:54;97880.66;;;3.88;96.67
19884;BME280;10104;50.732;10.174;2023-02-01T06:34:15;97879.22;;;3.93;97.51
19884;BME280;10104;50.732;10.174;2023-02-01T06:36:37;97861.56;;;3.95;96.52
19884;BME280;10104;50.732;10.174;2023-02-01T06:38:59;97882.38;;;3.97;96.17
19884;BME280;10104;50.732;10.174;2023-02-01T06:41:21;97867.03;;;4.02;95.83
19884;BME280;10104;50.732;10.174;2023-02-01T06:43:42;97869.50;;;4.03;96.01
19884;BME280;10104;50.732;10.174;2023-02-01T06:46:11;97862.09;;;3.99;94.71
19884;BME280;10104;50.732;10.174;2023-02-01T06:48:33;97878.94;;;3.96;96.16
19884;BME280;10104;50.732;10.174;2023-02-01T06:50:55;97891.06;;;3.97;95.40
19884;BME280;10104;50.732;10.174;2023-02-01T06:53:17;97886.38;;;4.01;94.57
19884;BME280;10104;50.732;10.174;2023-02-01T06:55:38;97885.00;;;3.97;96.63
19884;BME280;10104;50.732;10.174;2023-02-01T06:58:00;97866.50;;;3.98;95.44
19884;BME280;10104;50.732;10.174;2023-02-01T07:00:23;97866.97;;;4.12;95.38
19884;BME280;10104;50.732;10.174;2023-02-01T07:02:45;97875.88;;;4.01;95.43
19884;BME280;10104;50.732;10.174;2023-02-01T07:05:07;97889.06;;;4.09;94.95
19884;BME280;10104;50.732;10.174;2023-02-01T07:07:28;97880.69;;;4.05;96.13
19884;BME280;10104;50.732;10.174;2023-02-01T07:09:50;97866.84;;;4.13;95.11
19884;BME280;10104;50.732;10.174;2023-02-01T07:12:11;97878.81;;;4.16;95.56
19884;BME280;10104;50.732;10.174;2023-02-01T07:14:33;97884.88;;;4.16;94.62
19884;BME280;10104;50.732;10.174;2023-02-01T07:16:54;97889.16;;;4.17;95.61
19884;BME280;10104;50.732;10.174;2023-02-01T07:19:16;97884.19;;;4.14;96.43
19884;BME280;10104;50.732;10.174;2023-02-01T07:21:37;97881.16;;;4.19;95.00
19884;BME280;10104;50.732;10.174;2023-02-01T07:23:59;97891.88;;;4.25;95.64
19884;BME280;10104;50.732;10.174;2023-02-01T07:26:21;97873.06;;;4.30;96.37
19884;BME280;10104;50.732;10.174;2023-02-01T07:28:43;97878.75;;;4.25;94.80
19884;BME280;10104;50.732;10.174;2023-02-01T07:31:09;97906.00;;;4.32;94.05
19884;BME280;10104;50.732;10.174;2023-02-01T07:33:31;97899.41;;;4.28;92.65
19884;BME280;10104;50.732;10.174;2023-02-01T07:35:53;97887.66;;;4.32;94.33
19884;BME280;10104;50.732;10.174;2023-02-01T07:38:15;97892.09;;;4.32;94.30
19884;BME280;10104;50.732;10.174;2023-02-01T07:40:37;97900.00;;;4.40;93.97
19884;BME280;10104;50.732;10.174;2023-02-01T07:42:58;97894.63;;;4.41;94.15
19884;BME280;10104;50.732;10.174;2023-02-01T07:45:21;97900.84;;;4.40;93.80
19884;BME280;10104;50.732;10.174;2023-02-01T07:47:43;97885.94;;;4.41;94.55
19884;BME280;10104;50.732;10.174;2023-02-01T07:50:04;97898.44;;;4.47;94.35
19884;BME280;10104;50.732;10.174;2023-02-01T07:52:29;97904.97;;;4.43;94.14
19884;BME280;10104;50.732;10.174;2023-02-01T07:54:50;97894.31;;;4.44;93.27
19884;BME280;10104;50.732;10.174;2023-02-01T07:57:12;97903.19;;;4.43;93.92
19884;BME280;10104;50.732;10.174;2023-02-01T07:59:34;97898.31;;;4.48;93.83
19884;BME280;10104;50.732;10.174;2023-02-01T08:01:55;97915.28;;;4.44;93.44
19884;BME280;10104;50.732;10.174;2023-02-01T08:04:17;97925.63;;;4.46;94.30
19884;BME280;10104;50.732;10.174;2023-02-01T08:06:39;97907.06;;;4.39;94.47
19884;BME280;10104;50.732;10.174;2023-02-01T08:09:01;97911.94;;;4.52;94.33
19884;BME280;10104;50.732;10.174;2023-02-01T08:11:24;97916.75;;;4.57;94.84
19884;BME280;10104;50.732;10.174;2023-02-01T08:13:47;97906.44;;;4.63;94.26
19884;BME280;10104;50.732;10.174;2023-02-01T08:16:10;97918.78;;;4.63;93.62
19884;BME280;10104;50.732;10.174;2023-02-01T08:18:33;97910.28;;;4.69;93.45
19884;BME280;10104;50.732;10.174;2023-02-01T08:20:54;97905.06;;;4.69;93.16
19884;BME280;10104;50.732;10.174;2023-02-01T08:23:16;97903.69;;;4.65;93.43
19884;BME280;10104;50.732;10.174;2023-02-01T08:25:38;97893.34;;;4.63;93.76
19884;BME280;10104;50.732;10.174;2023-02-01T08:28:00;97913.56;;;4.71;93.35
19884;BME280;10104;50.732;10.174;2023-02-01T08:30:21;97930.72;;;4.83;93.14
19884;BME280;10104;50.732;10.174;2023-02-01T08:32:43;97923.28;;;4.96;92.93
19884;BME280;10104;50.732;10.174;2023-02-01T08:35:05;97930.06;;;4.99;93.17
19884;BME280;10104;50.732;10.174;2023-02-01T08:37:27;97927.22;;;4.92;91.22
19884;BME280;10104;50.732;10.174;2023-02-01T08:39:48;97947.88;;;4.95;91.12
19884;BME280;10104;50.732;10.174;2023-02-01T08:42:11;97932.75;;;4.89;92.71
19884;BME280;10104;50.732;10.174;2023-02-01T08:44:51;97935.53;;;4.87;94.01
19884;BME280;10104;50.732;10.174;2023-02-01T08:47:13;97934.03;;;4.85;93.45
19884;BME280;10104;50.732;10.174;2023-02-01T08:49:34;97932.31;;;4.94;92.04
19884;BME280;10104;50.732;10.174;2023-02-01T08:51:56;97940.22;;;5.02;92.00
19884;BME280;10104;50.732;10.174;2023-02-01T08:54:24;97953.34;;;5.02;93.14
19884;BME280;10104;50.732;10.174;2023-02-01T08:56:45;97956.66;;;5.04;93.09
19884;BME280;10104;50.732;10.174;2023-02-01T08:59:06;97992.84;;;5.00;91.96
19884;BME280;10104;50.732;10.174;2023-02-01T09:01:28;97976.75;;;4.95;92.98
19884;BME280;10104;50.732;10.174;2023-02-01T09:03:50;97971.25;;;4.88;94.57
19884;BME280;10104;50.732;10.174;2023-02-01T09:06:13;97972.69;;;4.83;96.74
19884;BME280;10104;50.732;10.174;2023-02-01T09:08:35;97970.28;;;4.89;97.72
19884;BME280;10104;50.732;10.174;2023-02-01T09:11:06;97972.78;;;4.91;96.32
19884;BME280;10104;50.732;10.174;2023-02-01T09:13:28;97975.09;;;4.94;97.52
19884;BME280;10104;50.732;10.174;2023-02-01T09:15:51;97963.47;;;4.97;96.55
19884;BME280;10104;50.732;10.174;2023-02-01T09:18:12;97980.03;;;4.97;95.52
19884;BME280;10104;50.732;10.174;2023-02-01T09:20:33;97980.50;;;4.93;95.50
19884;BME280;10104;50.732;10.174;2023-02-01T09:22:55;97978.16;;;4.89;96.99
19884;BME280;10104;50.732;10.174;2023-02-01T09:25:17;97980.50;;;4.93;95.91
19884;BME280;10104;50.732;10.174;2023-02-01T09:27:38;97987.53;;;5.10;95.07
19884;BME280;10104;50.732;10.174;2023-02-01T09:30:00;97984.31;;;4.98;94.17
19884;BME280;10104;50.732;10.174;2023-02-01T09:32:22;97993.91;;;5.07;94.65
19884;BME280;10104;50.732;10.174;2023-02-01T09:34:44;97975.38;;;5.09;93.45
19884;BME280;10104;50.732;10.174;2023-02-01T09:37:05;97973.22;;;5.04;93.93
19884;BME280;10104;50.732;10.174;2023-02-01T09:39:27;97981.00;;;5.14;93.14
19884;BME280;10104;50.732;10.174;2023-02-01T09:41:57;97991.28;;;5.07;94.86
19884;BME280;10104;50.732;10.174;2023-02-01T09:47:10;97984.44;;;5.14;94.36
19884;BME280;10104;50.732;10.174;2023-02-01T09:49:37;97984.78;;;5.11;93.59
19884;BME280;10104;50.732;10.174;2023-02-01T09:52:06;97999.22;;;5.15;94.83
19884;BME280;10104;50.732;10.174;2023-02-01T09:54:39;97990.75;;;5.21;92.94
19884;BME280;10104;50.732;10.174;2023-02-01T09:57:13;97984.53;;;5.22;94.70
19884;BME280;10104;50.732;10.174;2023-02-01T09:59:55;97991.56;;;5.22;93.19
19884;BME280;10104;50.732;10.174;2023-02-01T10:02:26;97994.47;;;5.19;92.53
19884;BME280;10104;50.732;10.174;2023-02-01T10:04:49;97993.88;;;5.25;93.36
19884;BME280;10104;50.732;10.174;2023-02-01T10:12:54;98009.03;;;5.31;93.78
19884;BME280;10104;50.732;10.174;2023-02-01T10:21:19;97990.97;;;5.28;92.28
19884;BME280;10104;50.732;10.174;2023-02-01T10:26:21;97996.22;;;5.28;93.60
19884;BME280;10104;50.732;10.174;2023-02-01T10:28:45;97984.53;;;5.22;92.24
19884;BME280;10104;50.732;10.174;2023-02-01T10:31:08;97993.50;;;5.20;92.55
19884;BME280;10104;50.732;10.174;2023-02-01T10:33:39;97995.63;;;5.16;93.24
19884;BME280;10104;50.732;10.174;2023-02-01T10:36:15;97989.38;;;5.35;94.21
19884;BME280;10104;50.732;10.174;2023-02-01T10:38:38;97980.06;;;5.41;93.97
19884;BME280;10104;50.732;10.174;2023-02-01T10:41:10;97991.09;;;5.70;93.32
19884;BME280;10104;50.732;10.174;2023-02-01T10:43:33;97988.03;;;5.57;90.90
19884;BME280;10104;50.732;10.174;2023-02-01T10:45:55;97981.13;;;5.74;92.63
19884;BME280;10104;50.732;10.174;2023-02-01T10:48:16;97983.47;;;5.59;92.53
19884;BME280;10104;50.732;10.174;2023-02-01T10:50:44;97976.69;;;5.48;91.65
19884;BME280;10104;50.732;10.174;2023-02-01T10:53:28;97970.75;;;5.46;92.43
19884;BME280;10104;50.732;10.174;2023-02-01T10:55:54;97979.44;;;5.47;91.83
19884;BME280;10104;50.732;10.174;2023-02-01T10:58:21;97966.25;;;5.39;92.33
19884;BME280;10104;50.732;10.174;2023-02-01T11:01:04;97956.34;;;5.24;92.62
19884;BME280;10104;50.732;10.174;2023-02-01T11:03:37;97967.94;;;5.22;92.67
19884;BME280;10104;50.732;10.174;2023-02-01T11:06:03;97962.16;;;5.36;93.51
19884;BME280;10104;50.732;10.174;2023-02-01T11:08:25;97967.84;;;5.32;93.79
19884;BME280;10104;50.732;10.174;2023-02-01T11:10:46;97957.72;;;5.37;92.31
19884;BME280;10104;50.732;10.174;2023-02-01T11:13:17;97956.59;;;5.39;92.75
19884;BME280;10104;50.732;10.174;2023-02-01T11:15:43;97952.41;;;5.28;91.76
19884;BME280;10104;50.732;10.174;2023-02-01T11:18:17;97958.28;;;5.22;92.62
19884;BME280;10104;50.732;10.174;2023-02-01T11:20:40;97962.22;;;5.26;92.15
19884;BME280;10104;50.732;10.174;2023-02-01T11:23:03;97959.69;;;5.35;92.33
19884;BME280;10104;50.732;10.174;2023-02-01T11:25:25;97952.88;;;5.24;92.26
19884;BME280;10104;50.732;10.174;2023-02-01T11:27:48;97960.53;;;5.17;91.42
19884;BME280;10104;50.732;10.174;2023-02-01T11:30:17;97977.34;;;5.24;92.12
19884;BME280;10104;50.732;10.174;2023-02-01T11:32:40;97965.84;;;5.25;91.57
19884;BME280;10104;50.732;10.174;2023-02-01T11:35:04;97955.66;;;5.22;91.44
19884;BME280;10104;50.732;10.174;2023-02-01T11:37:32;97957.13;;;5.25;91.11
19884;BME280;10104;50.732;10.174;2023-02-01T11:39:57;97948.38;;;5.16;91.08
19884;BME280;10104;50.732;10.174;2023-02-01T11:42:20;97942.22;;;5.25;90.73
19884;BME280;10104;50.732;10.174;2023-02-01T11:44:46;97941.69;;;5.22;89.96
19884;BME280;10104;50.732;10.174;2023-02-01T11:47:24;97945.91;;;5.15;88.74
19884;BME280;10104;50.732;10.174;2023-02-01T11:49:52;97943.81;;;5.18;89.96
19884;BME280;10104;50.732;10.174;2023-02-01T12:01:05;97923.75;;;5.35;88.66
19884;BME280;10104;50.732;10.174;2023-02-01T12:09:12;97912.78;;;5.40;88.69
19884;BME280;10104;50.732;10.174;2023-02-01T12:17:32;97922.81;;;5.44;87.76
19884;BME280;10104;50.732;10.174;2023-02-01T12:20:08;97928.13;;;5.52;85.69
19884;BME280;10104;50.732;10.174;2023-02-01T12:22:59;97919.13;;;5.63;87.78
19884;BME280;10104;50.732;10.174;2023-02-01T12:26:08;97916.50;;;5.63;86.96
19884;BME280;10104;50.732;10.174;2023-02-01T12:37:06;97912.00;;;5.47;86.38
19884;BME280;10104;50.732;10.174;2023-02-01T12:42:14;97902.09;;;5.67;87.25
19884;BME280;10104;50.732;10.174;2023-02-01T12:47:30;97891.56;;;5.59;85.00
19884;BME280;10104;50.732;10.174;2023-02-01T12:50:04;97896.13;;;5.57;84.53
19884;BME280;10104;50.732;10.174;2023-02-01T12:55:17;97874.50;;;5.63;85.77
19884;BME280;10104;50.732;10.174;2023-02-01T12:57:46;97871.66;;;5.56;86.90
19884;BME280;10104;50.732;10.174;2023-02-01T13:00:32;97863.28;;;5.53;85.64
19884;BME280;10104;50.732;10.174;2023-02-01T13:03:05;97865.38;;;5.41;86.46
19884;BME280;10104;50.732;10.174;2023-02-01T13:06:00;97856.19;;;5.45;86.05
19884;BME280;10104;50.732;10.174;2023-02-01T13:08:40;97858.94;;;5.36;87.70
19884;BME280;10104;50.732;10.174;2023-02-01T13:11:11;97847.91;;;5.32;86.98
19884;BME280;10104;50.732;10.174;2023-02-01T13:13:48;97859.25;;;5.33;88.00
19884;BME280;10104;50.732;10.174;2023-02-01T13:16:17;97845.28;;;5.24;86.32
19884;BME280;10104;50.732;10.174;2023-02-01T13:18:46;97842.66;;;5.32;89.03
19884;BME280;10104;50.732;10.174;2023-02-01T13:21:16;97844.03;;;5.36;85.50
19884;BME280;10104;50.732;10.174;2023-02-01T13:23:40;97847.72;;;5.25;84.96
19884;BME280;10104;50.732;10.174;2023-02-01T13:26:03;97845.47;;;5.31;85.51
19884;BME280;10104;50.732;10.174;2023-02-01T13:28:28;97844.03;;;5.44;85.10
19884;BME280;10104;50.732;10.174;2023-02-01T13:37:28;97817.34;;;5.57;85.87
19884;BME280;10104;50.732;10.174;2023-02-01T13:40:17;97831.53;;;5.72;85.83
19884;BME280;10104;50.732;10.174;2023-02-01T13:42:48;97824.91;;;5.60;83.60
19884;BME280;10104;50.732;10.174;2023-02-01T13:45:20;97808.38;;;5.76;83.75
19884;BME280;10104;50.732;10.174;2023-02-01T13:47:46;97810.53;;;5.80;83.12
19884;BME280;10104;50.732;10.174;2023-02-01T13:52:41;97802.22;;;5.93;84.51
19884;BME280;10104;50.732;10.174;2023-02-01T13:57:42;97794.41;;;5.75;82.34
19884;BME280;10104;50.732;10.174;2023-02-01T14:00:29;97798.53;;;5.78;81.68
19884;BME280;10104;50.732;10.174;2023-02-01T14:10:53;97759.13;;;5.78;81.79
19884;BME280;10104;50.732;10.174;2023-02-01T14:13:40;97752.72;;;5.72;83.26
19884;BME280;10104;50.732;10.174;2023-02-01T14:21:13;97743.34;;;5.61;85.65